Time,TemperatureF,DewpointF,PressureIn,WindDirection,WindDirectionDegrees,WindSpeedMPH,WindSpeedGustMPH,Humidity,HourlyPrecipIn,Conditions,Clouds,dailyrainin,SoftwareType,DateUTC
2013-10-04 00:00:00,59.1,58.0,29.95,NNW,327,3.0,4.0,96,0.00,,---,0.00,VWS V14.01,2013-10-04 04:00:00,
2013-10-04 00:30:00,59.0,57.9,29.94,ESE,121,0.0,6.0,96,0.01,,---,0.03,VWS V14.01,2013-10-04 04:30:00,
2013-10-04 00:32:00,58.6,57.8,29.95,NE,53,0.0,2.0,97,0.00,,---,0.00,VWS V14.01,2013-10-04 04:32:00,
2013-10-04 00:35:00,58.6,57.5,29.94,NE,53,0.0,3.0,96,0.00,,---,0.00,VWS V14.01,2013-10-04 04:35:00,
2013-10-04 00:40:00,58.5,57.7,29.95,ENE,63,5.0,5.0,97,0.00,,---,0.00,VWS V14.01,2013-10-04 04:40:00,
2013-10-04 00:43:00,58.3,57.2,29.94,SE,125,5.0,6.0,96,0.00,,---,0.00,VWS V14.01,2013-10-04 04:43:00,
2013-10-04 00:44:00,58.3,57.2,29.94,SE,129,5.0,7.0,96,0.00,,---,0.00,VWS V14.01,2013-10-04 04:44:00,
2013-10-04 00:46:00,58.2,57.1,29.94,ESE,114,1.0,7.0,96,0.00,,---,0.00,VWS V14.01,2013-10-04 04:46:00,
2013-10-04 00:48:00,58.2,57.1,29.94,ESE,116,5.0,7.0,96,0.00,,---,0.00,VWS V14.01,2013-10-04 04:48:00,
2013-10-04 00:56:00,58.0,57.2,29.94,ESE,106,2.0,7.0,97,0.00,,---,0.00,VWS V14.01,2013-10-04 04:56:00,
2013-10-04 00:59:00,58.0,56.9,29.94,ENE,77,2.0,7.0,96,0.00,,---,0.00,VWS V14.01,2013-10-04 04:59:00,
2013-10-04 01:00:00,57.9,57.1,29.94,ENE,78,3.0,3.0,97,0.00,,---,0.00,VWS V14.01,2013-10-04 05:00:00,
2013-10-04 01:03:00,57.9,57.1,29.94,East,84,3.0,5.0,97,0.00,,---,0.00,VWS V14.01,2013-10-04 05:03:00,
2013-10-04 01:07:00,57.9,57.1,29.94,East,81,1.0,5.0,97,0.00,,---,0.00,VWS V14.01,2013-10-04 05:07:00,
2013-10-04 01:11:00,57.7,56.9,29.94,East,81,2.0,5.0,97,0.00,,---,0.00,VWS V14.01,2013-10-04 05:11:00,
2013-10-04 01:14:00,57.7,56.9,29.93,East,81,1.0,5.0,97,0.00,,---,0.00,VWS V14.01,2013-10-04 05:14:00,
2013-10-04 01:16:00,57.7,56.9,29.93,East,81,3.0,5.0,97,0.00,,---,0.00,VWS V14.01,2013-10-04 05:16:00,
2013-10-04 01:18:00,57.6,56.5,29.93,East,81,4.0,5.0,96,0.00,,---,0.00,VWS V14.01,2013-10-04 05:18:00,
2013-10-04 01:25:00,57.4,56.6,29.93,East,84,2.0,5.0,97,0.00,,---,0.00,VWS V14.01,2013-10-04 05:25:00,
2013-10-04 01:27:00,57.4,56.3,29.93,East,84,2.0,5.0,96,0.00,,---,0.00,VWS V14.01,2013-10-04 05:27:00,
2013-10-04 01:30:00,58.6,57.5,29.94,NE,53,2.0,7.0,96,0.00,,---,0.00,VWS V14.01,2013-10-04 05:30:00,
2013-10-04 01:32:00,57.3,56.2,29.93,East,101,3.0,7.0,96,0.00,,---,0.00,VWS V14.01,2013-10-04 05:32:00,
2013-10-04 01:37:00,57.3,56.2,29.93,East,95,3.0,7.0,96,0.00,,---,0.00,VWS V14.01,2013-10-04 05:37:00,
2013-10-04 01:42:00,57.2,56.1,29.93,NE,48,3.0,7.0,96,0.00,,---,0.03,VWS V14.01,2013-10-04 05:42:00,
2013-10-04 01:47:00,57.1,56.0,29.93,East,96,2.0,7.0,96,0.00,,---,0.00,VWS V14.01,2013-10-04 05:47:00,
2013-10-04 01:53:00,57.1,56.0,29.92,ENE,64,1.0,7.0,96,0.00,,---,0.00,VWS V14.01,2013-10-04 05:53:00,
2013-10-04 01:58:00,57.1,56.0,29.92,ENE,57,0.0,7.0,96,0.00,,---,0.00,VWS V14.01,2013-10-04 05:58:00,
2013-10-04 02:00:00,57.9,56.8,29.94,ENE,77,0.0,7.0,96,0.00,,---,0.00,VWS V14.01,2013-10-04 06:00:00,
2013-10-04 02:03:00,57.1,56.0,29.92,ENE,57,0.0,3.0,96,0.00,,---,0.00,VWS V14.01,2013-10-04 06:03:00,
2013-10-04 02:08:00,57.2,56.1,29.91,ENE,57,2.0,3.0,96,0.00,,---,0.00,VWS V14.01,2013-10-04 06:08:00,
2013-10-04 02:13:00,57.1,56.0,29.92,ENE,57,3.0,4.0,96,0.00,,---,0.00,VWS V14.01,2013-10-04 06:13:00,
2013-10-04 02:18:00,57.1,56.0,29.91,ENE,71,0.0,6.0,96,0.00,,---,0.00,VWS V14.01,2013-10-04 06:18:00,
2013-10-04 02:23:00,57.1,56.0,29.91,ENE,71,1.0,6.0,96,0.00,,---,0.00,VWS V14.01,2013-10-04 06:23:00,
2013-10-04 02:28:00,57.1,56.0,29.92,ENE,71,0.0,6.0,96,0.00,,---,0.00,VWS V14.01,2013-10-04 06:28:00,
2013-10-04 02:30:00,57.4,56.6,29.93,ENE,78,4.0,6.0,97,0.00,,---,0.00,VWS V14.01,2013-10-04 06:30:00,
2013-10-04 02:33:00,57.1,56.0,29.92,ENE,71,0.0,3.0,96,0.00,,---,0.00,VWS V14.01,2013-10-04 06:33:00,
2013-10-04 02:38:00,57.1,56.0,29.92,ENE,71,2.0,4.0,96,0.00,,---,0.00,VWS V14.01,2013-10-04 06:38:00,
2013-10-04 02:43:00,57.3,56.2,29.92,ENE,71,0.0,4.0,96,0.00,,---,0.00,VWS V14.01,2013-10-04 06:43:00,
2013-10-04 02:48:00,57.3,56.2,29.92,ENE,71,0.0,4.0,96,0.00,,---,0.00,VWS V14.01,2013-10-04 06:48:00,
2013-10-04 02:53:00,57.3,56.2,29.92,ENE,71,0.0,4.0,96,0.00,,---,0.00,VWS V14.01,2013-10-04 06:53:00,
2013-10-04 02:58:00,57.1,56.0,29.92,ENE,71,4.0,5.0,96,0.00,,---,0.00,VWS V14.01,2013-10-04 06:58:00,
2013-10-04 03:00:00,57.1,56.0,29.92,ENE,57,0.0,7.0,96,0.00,,---,0.00,VWS V14.01,2013-10-04 07:00:00,
2013-10-04 03:03:00,57.1,56.0,29.92,ENE,71,1.0,3.0,96,0.00,,---,0.00,VWS V14.01,2013-10-04 07:03:00,
2013-10-04 03:08:00,57.1,56.0,29.93,ENE,71,2.0,3.0,96,0.00,,---,0.00,VWS V14.01,2013-10-04 07:08:00,
2013-10-04 03:13:00,57.1,56.0,29.92,ENE,71,0.0,3.0,96,0.00,,---,0.00,VWS V14.01,2013-10-04 07:13:00,
2013-10-04 03:18:00,57.3,56.2,29.93,ENE,71,0.0,3.0,96,0.00,,---,0.00,VWS V14.01,2013-10-04 07:18:00,
2013-10-04 03:23:00,57.3,56.2,29.92,ENE,71,3.0,4.0,96,0.00,,---,0.00,VWS V14.01,2013-10-04 07:23:00,
2013-10-04 03:28:00,57.1,56.0,29.93,ENE,71,4.0,4.0,96,0.00,,---,0.00,VWS V14.01,2013-10-04 07:28:00,
2013-10-04 03:30:00,57.1,56.0,29.92,ENE,71,2.0,6.0,96,0.00,,---,0.00,VWS V14.01,2013-10-04 07:30:00,
2013-10-04 03:33:00,57.1,56.0,29.92,ENE,71,1.0,4.0,96,0.00,,---,0.00,VWS V14.01,2013-10-04 07:33:00,
2013-10-04 03:38:00,57.0,55.9,29.93,ENE,71,0.0,4.0,96,0.00,,---,0.00,VWS V14.01,2013-10-04 07:38:00,
2013-10-04 03:43:00,57.0,55.9,29.93,ENE,71,2.0,4.0,96,0.00,,---,0.00,VWS V14.01,2013-10-04 07:43:00,
2013-10-04 03:48:00,57.0,55.9,29.93,ENE,71,1.0,4.0,96,0.00,,---,0.00,VWS V14.01,2013-10-04 07:48:00,
2013-10-04 03:53:00,57.0,55.9,29.93,ENE,71,3.0,4.0,96,0.00,,---,0.00,VWS V14.01,2013-10-04 07:53:00,
2013-10-04 03:58:00,57.0,55.9,29.93,ENE,71,0.0,4.0,96,0.00,,---,0.00,VWS V14.01,2013-10-04 07:58:00,
2013-10-04 04:00:00,57.1,56.0,29.92,ENE,71,0.0,5.0,96,0.00,,---,0.00,VWS V14.01,2013-10-04 08:00:00,
2013-10-04 04:03:00,57.0,55.9,29.93,ENE,71,0.0,3.0,96,0.00,,---,0.00,VWS V14.01,2013-10-04 08:03:00,
2013-10-04 04:08:00,57.0,55.9,29.93,ENE,71,0.0,3.0,96,0.00,,---,0.00,VWS V14.01,2013-10-04 08:08:00,
2013-10-04 04:13:00,57.0,55.9,29.93,ENE,71,2.0,3.0,96,0.00,,---,0.00,VWS V14.01,2013-10-04 08:13:00,
2013-10-04 04:18:00,57.0,55.9,29.93,ENE,71,3.0,3.0,96,0.00,,---,0.00,VWS V14.01,2013-10-04 08:18:00,
2013-10-04 04:23:00,57.1,56.0,29.93,ENE,71,1.0,4.0,96,0.00,,---,0.00,VWS V14.01,2013-10-04 08:23:00,
2013-10-04 04:28:00,57.1,56.0,29.93,ENE,71,0.0,4.0,96,0.00,,---,0.00,VWS V14.01,2013-10-04 08:28:00,
2013-10-04 04:30:00,57.1,56.0,29.92,ENE,71,2.0,5.0,96,0.00,,---,0.00,VWS V14.01,2013-10-04 08:30:00,
2013-10-04 04:33:00,57.1,56.0,29.94,ENE,71,0.0,2.0,96,0.00,,---,0.00,VWS V14.01,2013-10-04 08:33:00,
2013-10-04 04:39:00,57.1,56.0,29.94,ENE,71,0.0,3.0,96,0.00,,---,0.00,VWS V14.01,2013-10-04 08:39:00,
2013-10-04 04:44:00,57.0,55.9,29.94,ENE,71,0.0,3.0,96,0.00,,---,0.00,VWS V14.01,2013-10-04 08:44:00,
2013-10-04 04:49:00,57.0,55.9,29.94,ENE,71,0.0,3.0,96,0.00,,---,0.00,VWS V14.01,2013-10-04 08:49:00,
2013-10-04 04:54:00,57.0,55.9,29.94,ENE,71,0.0,3.0,96,0.00,,---,0.00,VWS V14.01,2013-10-04 08:54:00,
2013-10-04 04:59:00,57.0,55.9,29.94,NNE,33,5.0,6.0,96,0.00,,---,0.03,VWS V14.01,2013-10-04 08:59:00,
2013-10-04 05:00:00,57.0,55.9,29.93,ENE,71,2.0,4.0,96,0.00,,---,0.00,VWS V14.01,2013-10-04 09:00:00,
2013-10-04 05:04:00,56.8,55.7,29.94,NNE,33,3.0,5.0,96,0.00,,---,0.00,VWS V14.01,2013-10-04 09:04:00,
2013-10-04 05:09:00,56.7,55.6,29.94,NNE,26,4.0,7.0,96,0.00,,---,0.00,VWS V14.01,2013-10-04 09:09:00,
2013-10-04 05:14:00,56.7,55.6,29.93,NNE,26,3.0,7.0,96,0.00,,---,0.00,VWS V14.01,2013-10-04 09:14:00,
2013-10-04 05:19:00,56.5,55.1,29.93,NNE,33,2.0,7.0,95,0.00,,---,0.00,VWS V14.01,2013-10-04 09:19:00,
2013-10-04 05:24:00,56.4,55.3,29.94,NNE,33,3.0,7.0,96,0.00,,---,0.00,VWS V14.01,2013-10-04 09:24:00,
2013-10-04 05:29:00,56.2,54.8,29.94,SSE,149,0.0,7.0,95,0.00,,---,0.00,VWS V14.01,2013-10-04 09:29:00,
2013-10-04 05:30:00,57.1,56.0,29.93,ENE,71,0.0,4.0,96,0.00,,---,0.00,VWS V14.01,2013-10-04 09:30:00,
2013-10-04 05:34:00,56.2,55.1,29.94,NE,45,4.0,7.0,96,0.00,,---,0.00,VWS V14.01,2013-10-04 09:34:00,
2013-10-04 05:39:00,56.1,54.7,29.94,NNE,24,0.0,7.0,95,0.00,,---,0.00,VWS V14.01,2013-10-04 09:39:00,
2013-10-04 05:44:00,56.1,54.7,29.94,NNE,26,3.0,7.0,95,0.00,,---,0.00,VWS V14.01,2013-10-04 09:44:00,
2013-10-04 05:49:00,55.9,54.8,29.94,NNE,32,7.0,9.0,96,0.00,,---,0.00,VWS V14.01,2013-10-04 09:49:00,
2013-10-04 05:54:00,55.9,54.5,29.94,NE,34,2.0,11.0,95,0.00,,---,0.00,VWS V14.01,2013-10-04 09:54:00,
2013-10-04 05:59:00,55.9,54.5,29.94,NE,42,3.0,11.0,95,0.00,,---,0.00,VWS V14.01,2013-10-04 09:59:00,
2013-10-04 06:00:00,57.0,55.9,29.94,NNE,33,3.0,6.0,96,0.00,,---,0.00,VWS V14.01,2013-10-04 10:00:00,
2013-10-04 06:04:00,55.9,54.5,29.95,NE,40,7.0,7.0,95,0.00,,---,0.00,VWS V14.01,2013-10-04 10:04:00,
2013-10-04 06:09:00,55.8,54.4,29.95,SSE,162,2.0,8.0,95,0.00,,---,0.00,VWS V14.01,2013-10-04 10:09:00,
2013-10-04 06:14:00,55.8,54.4,29.96,SE,142,1.0,9.0,95,0.00,,---,0.00,VWS V14.01,2013-10-04 10:14:00,
2013-10-04 06:19:00,55.6,54.2,29.96,SE,136,2.0,9.0,95,0.00,,---,0.00,VWS V14.01,2013-10-04 10:19:00,
2013-10-04 06:24:00,55.6,54.2,29.97,NNE,31,0.0,9.0,95,0.00,,---,0.00,VWS V14.01,2013-10-04 10:24:00,
2013-10-04 06:29:00,55.6,54.2,29.96,ESE,109,3.0,9.0,95,0.00,,---,0.00,VWS V14.01,2013-10-04 10:29:00,
2013-10-04 06:30:00,56.2,55.1,29.94,SSE,149,3.0,7.0,96,0.00,,---,0.00,VWS V14.01,2013-10-04 10:30:00,
2013-10-04 06:34:00,55.6,54.2,29.96,NNE,30,3.0,7.0,95,0.00,,---,0.00,VWS V14.01,2013-10-04 10:34:00,
2013-10-04 06:39:00,55.6,54.2,29.96,NNE,22,4.0,7.0,95,0.00,,---,0.00,VWS V14.01,2013-10-04 10:39:00,
2013-10-04 06:44:00,55.6,54.2,29.96,NE,50,2.0,10.0,95,0.00,,---,0.00,VWS V14.01,2013-10-04 10:44:00,
2013-10-04 06:49:00,55.6,54.2,29.96,NE,44,4.0,10.0,95,0.00,,---,0.00,VWS V14.01,2013-10-04 10:49:00,
2013-10-04 06:54:00,55.8,54.4,29.97,SSE,161,2.0,10.0,95,0.00,,---,0.00,VWS V14.01,2013-10-04 10:54:00,
2013-10-04 06:59:00,55.8,54.7,29.97,ENE,63,4.0,10.0,96,0.00,,---,0.00,VWS V14.01,2013-10-04 10:59:00,
2013-10-04 07:00:00,55.9,54.5,29.95,NE,39,3.0,11.0,95,0.00,,---,0.00,VWS V14.01,2013-10-04 11:00:00,
2013-10-04 07:04:00,55.8,54.4,29.97,NE,50,1.0,6.0,95,0.00,,---,0.00,VWS V14.01,2013-10-04 11:04:00,
2013-10-04 07:09:00,55.9,54.5,29.98,ESE,123,0.0,6.0,95,0.00,,---,0.00,VWS V14.01,2013-10-04 11:09:00,
2013-10-04 07:14:00,55.9,54.5,29.98,ESE,113,4.0,6.0,95,0.00,,---,0.00,VWS V14.01,2013-10-04 11:14:00,
2013-10-04 07:19:00,55.9,54.5,29.98,East,82,4.0,6.0,95,0.00,,---,0.00,VWS V14.01,2013-10-04 11:19:00,
2013-10-04 07:25:00,55.9,54.5,29.98,NE,38,2.0,7.0,95,0.00,,---,0.00,VWS V14.01,2013-10-04 11:25:00,
2013-10-04 07:30:00,55.9,54.5,29.97,NE,52,5.0,7.0,95,0.00,,---,0.00,VWS V14.01,2013-10-04 11:30:00,
2013-10-04 07:35:00,55.9,54.5,29.98,NNE,17,0.0,7.0,95,0.00,,---,0.00,VWS V14.01,2013-10-04 11:35:00,
2013-10-04 07:40:00,55.9,54.5,29.98,NE,34,3.0,7.0,95,0.00,,---,0.00,VWS V14.01,2013-10-04 11:40:00,
2013-10-04 07:45:00,55.9,54.8,29.98,NE,46,2.0,7.0,96,0.00,,---,0.00,VWS V14.01,2013-10-04 11:45:00,
2013-10-04 07:50:00,55.9,54.5,29.98,NE,46,2.0,7.0,95,0.00,,---,0.00,VWS V14.01,2013-10-04 11:50:00,
2013-10-04 07:55:00,55.9,54.5,29.98,NE,52,2.0,7.0,95,0.00,,---,0.00,VWS V14.01,2013-10-04 11:55:00,
2013-10-04 08:00:00,55.9,54.5,29.98,ENE,66,1.0,7.0,95,0.00,,---,0.00,VWS V14.01,2013-10-04 12:00:00,
2013-10-04 08:05:00,55.9,54.5,29.98,NE,39,6.0,8.0,95,0.00,,---,0.00,VWS V14.01,2013-10-04 12:05:00,
2013-10-04 08:10:00,55.9,54.5,29.98,North,11,6.0,10.0,95,0.00,,---,0.00,VWS V14.01,2013-10-04 12:10:00,
2013-10-04 08:15:00,55.9,54.8,29.98,WNW,286,2.0,10.0,96,0.00,,---,0.00,VWS V14.01,2013-10-04 12:15:00,
2013-10-04 08:20:00,55.9,54.5,29.99,ESE,114,3.0,10.0,95,0.00,,---,0.00,VWS V14.01,2013-10-04 12:20:00,
2013-10-04 08:25:00,55.9,54.2,29.99,ESE,105,2.0,10.0,94,0.00,,---,0.00,VWS V14.01,2013-10-04 12:25:00,
2013-10-04 08:30:00,55.9,54.5,29.99,ESE,111,2.0,3.0,95,0.00,,---,0.00,VWS V14.01,2013-10-04 12:30:00,
2013-10-04 08:35:00,55.9,54.5,29.98,NW,317,3.0,5.0,95,0.00,,---,0.00,VWS V14.01,2013-10-04 12:35:00,
2013-10-04 08:40:00,55.8,54.4,29.98,NE,45,4.0,10.0,95,0.00,,---,0.00,VWS V14.01,2013-10-04 12:40:00,
2013-10-04 08:45:00,55.8,54.4,29.99,North,1,6.0,13.0,95,0.01,,---,0.01,VWS V14.01,2013-10-04 12:45:00,
2013-10-04 08:50:00,55.6,54.2,29.98,NNE,33,2.0,13.0,95,0.01,,---,0.01,VWS V14.01,2013-10-04 12:50:00,
2013-10-04 08:55:00,55.7,54.3,29.99,WSW,251,4.0,13.0,95,0.01,,---,0.01,VWS V14.01,2013-10-04 12:55:00,
2013-10-04 09:00:00,55.5,54.1,29.99,NNE,23,4.0,9.0,95,0.01,,---,0.01,VWS V14.01,2013-10-04 13:00:00,
2013-10-04 09:05:00,55.5,53.8,29.99,South,179,2.0,9.0,94,0.01,,---,0.01,VWS V14.01,2013-10-04 13:05:00,
2013-10-04 09:10:00,55.5,54.1,29.99,ESE,121,0.0,9.0,95,0.01,,---,0.01,VWS V14.01,2013-10-04 13:10:00,
2013-10-04 09:15:00,55.3,53.9,29.99,SSE,159,3.0,11.0,95,0.01,,---,0.01,VWS V14.01,2013-10-04 13:15:00,
2013-10-04 09:20:00,55.4,54.0,30.00,East,92,4.0,11.0,95,0.01,,---,0.01,VWS V14.01,2013-10-04 13:20:00,
2013-10-04 09:25:00,55.4,54.0,30.01,East,98,0.0,11.0,95,0.01,,---,0.01,VWS V14.01,2013-10-04 13:25:00,
2013-10-04 09:30:00,55.4,54.0,30.01,NW,314,1.0,4.0,95,0.01,,---,0.01,VWS V14.01,2013-10-04 13:30:00,
2013-10-04 09:35:00,55.4,54.0,30.02,NNE,20,9.0,9.0,95,0.01,,---,0.01,VWS V14.01,2013-10-04 13:35:00,
2013-10-04 09:40:00,55.3,53.9,30.01,SE,136,3.0,9.0,95,0.01,,---,0.01,VWS V14.01,2013-10-04 13:40:00,
2013-10-04 09:45:00,55.3,53.9,30.01,East,93,1.0,9.0,95,0.01,,---,0.01,VWS V14.01,2013-10-04 13:45:00,
2013-10-04 09:50:00,55.3,53.9,30.01,East,85,0.0,9.0,95,0.01,,---,0.01,VWS V14.01,2013-10-04 13:50:00,
2013-10-04 09:56:00,55.5,54.1,30.01,East,85,2.0,9.0,95,0.01,,---,0.01,VWS V14.01,2013-10-04 13:56:00,
2013-10-04 10:00:00,55.5,54.1,29.99,South,187,7.0,13.0,95,0.01,,---,0.01,VWS V14.01,2013-10-04 14:00:00,
2013-10-04 10:01:00,55.5,54.1,30.01,East,85,2.0,3.0,95,0.00,,---,0.01,VWS V14.01,2013-10-04 14:01:00,
2013-10-04 10:06:00,55.5,54.1,30.01,East,85,1.0,4.0,95,0.00,,---,0.01,VWS V14.01,2013-10-04 14:06:00,
2013-10-04 10:11:00,55.6,54.2,30.01,ENE,64,4.0,5.0,95,0.00,,---,0.01,VWS V14.01,2013-10-04 14:11:00,
2013-10-04 10:16:00,55.6,54.2,30.01,SE,128,5.0,7.0,95,0.00,,---,0.01,VWS V14.01,2013-10-04 14:16:00,
2013-10-04 10:21:00,55.8,54.7,30.01,ESE,119,1.0,8.0,96,0.00,,---,0.01,VWS V14.01,2013-10-04 14:21:00,
2013-10-04 10:26:00,55.9,54.8,30.02,SE,125,2.0,8.0,96,0.00,,---,0.01,VWS V14.01,2013-10-04 14:26:00,
2013-10-04 10:30:00,55.3,53.9,30.01,NW,314,4.0,11.0,95,0.01,,---,0.01,VWS V14.01,2013-10-04 14:30:00,
2013-10-04 10:31:00,55.9,54.5,30.02,NE,35,4.0,5.0,95,0.00,,---,0.01,VWS V14.01,2013-10-04 14:31:00,
2013-10-04 10:36:00,55.9,54.5,30.01,East,92,4.0,7.0,95,0.00,,---,0.01,VWS V14.01,2013-10-04 14:36:00,
2013-10-04 10:41:00,55.9,54.5,30.02,East,96,2.0,7.0,95,0.00,,---,0.01,VWS V14.01,2013-10-04 14:41:00,
2013-10-04 10:46:00,56.1,54.7,30.02,SE,142,1.0,7.0,95,0.00,,---,0.01,VWS V14.01,2013-10-04 14:46:00,
2013-10-04 10:51:00,56.1,55.0,30.02,SE,142,3.0,7.0,96,0.00,,---,0.01,VWS V14.01,2013-10-04 14:51:00,
2013-10-04 10:56:00,56.1,54.7,30.02,ENE,65,2.0,7.0,95,0.00,,---,0.01,VWS V14.01,2013-10-04 14:56:00,
2013-10-04 11:00:00,55.5,54.1,30.01,East,85,2.0,9.0,95,0.01,,---,0.01,VWS V14.01,2013-10-04 15:00:00,
2013-10-04 11:01:00,56.2,54.8,30.02,NE,47,1.0,6.0,95,0.00,,---,0.01,VWS V14.01,2013-10-04 15:01:00,
2013-10-04 11:06:00,56.2,54.8,30.02,NE,56,2.0,6.0,95,0.00,,---,0.01,VWS V14.01,2013-10-04 15:06:00,
2013-10-04 11:11:00,56.4,55.0,30.03,ENE,59,2.0,6.0,95,0.00,,---,0.01,VWS V14.01,2013-10-04 15:11:00,
2013-10-04 11:16:00,56.5,55.1,30.03,ENE,59,2.0,6.0,95,0.00,,---,0.01,VWS V14.01,2013-10-04 15:16:00,
2013-10-04 11:17:00,56.5,55.1,30.03,ENE,59,3.0,6.0,95,0.00,,---,0.01,VWS V14.01,2013-10-04 15:17:00,
2013-10-04 11:22:00,56.5,55.1,30.02,ENE,59,2.0,6.0,95,0.00,,---,0.01,VWS V14.01,2013-10-04 15:22:00,
2013-10-04 11:27:00,56.7,55.3,30.02,NNE,30,2.0,7.0,95,0.00,,---,0.01,VWS V14.01,2013-10-04 15:27:00,
2013-10-04 11:30:00,55.9,54.8,30.02,East,93,5.0,8.0,96,0.00,,---,0.01,VWS V14.01,2013-10-04 15:30:00,
2013-10-04 11:32:00,57.0,55.6,30.02,ESE,114,3.0,6.0,95,0.00,,---,0.01,VWS V14.01,2013-10-04 15:32:00,
2013-10-04 11:37:00,57.1,55.7,30.02,ESE,110,6.0,7.0,95,0.00,,---,0.01,VWS V14.01,2013-10-04 15:37:00,
2013-10-04 11:42:00,57.4,56.0,30.02,East,88,3.0,7.0,95,0.00,,---,0.01,VWS V14.01,2013-10-04 15:42:00,
2013-10-04 11:47:00,57.7,56.3,30.02,East,82,6.0,7.0,95,0.00,,---,0.01,VWS V14.01,2013-10-04 15:47:00,
2013-10-04 11:52:00,57.9,56.5,30.02,NE,52,4.0,8.0,95,0.00,,---,0.01,VWS V14.01,2013-10-04 15:52:00,
2013-10-04 11:57:00,58.0,56.3,30.02,North,3,0.0,8.0,94,0.00,,---,0.01,VWS V14.01,2013-10-04 15:57:00,
2013-10-04 12:00:00,56.2,54.8,30.02,ENE,65,3.0,7.0,95,0.00,,---,0.01,VWS V14.01,2013-10-04 16:00:00,
2013-10-04 12:02:00,58.0,56.0,30.02,East,82,6.0,8.0,93,0.00,,---,0.01,VWS V14.01,2013-10-04 16:02:00,
2013-10-04 12:07:00,57.9,55.9,30.03,NNE,33,5.0,8.0,93,0.00,,---,0.01,VWS V14.01,2013-10-04 16:07:00,
2013-10-04 12:12:00,57.9,55.9,30.03,ENE,67,3.0,8.0,93,0.00,,---,0.01,VWS V14.01,2013-10-04 16:12:00,
2013-10-04 12:17:00,57.7,55.7,30.03,East,80,3.0,8.0,93,0.00,,---,0.01,VWS V14.01,2013-10-04 16:17:00,
2013-10-04 12:22:00,57.9,55.9,30.02,ESE,111,2.0,8.0,93,0.00,,---,0.01,VWS V14.01,2013-10-04 16:22:00,
2013-10-04 12:27:00,57.7,55.4,30.02,East,80,3.0,8.0,92,0.00,,---,0.01,VWS V14.01,2013-10-04 16:27:00,
2013-10-04 12:30:00,56.8,55.4,30.02,SE,129,3.0,7.0,95,0.00,,---,0.01,VWS V14.01,2013-10-04 16:30:00,
2013-10-04 12:32:00,57.9,55.9,30.03,SE,124,1.0,5.0,93,0.00,,---,0.01,VWS V14.01,2013-10-04 16:32:00,
2013-10-04 12:37:00,57.9,55.9,30.02,ENE,71,7.0,10.0,93,0.00,,---,0.01,VWS V14.01,2013-10-04 16:37:00,
2013-10-04 12:42:00,57.9,55.9,30.03,East,87,2.0,10.0,93,0.00,,---,0.01,VWS V14.01,2013-10-04 16:42:00,
2013-10-04 12:47:00,57.7,55.7,30.03,East,92,4.0,10.0,93,0.00,,---,0.01,VWS V14.01,2013-10-04 16:47:00,
2013-10-04 12:52:00,57.7,55.7,30.03,East,80,4.0,10.0,93,0.00,,---,0.01,VWS V14.01,2013-10-04 16:52:00,
2013-10-04 12:57:00,57.7,55.4,30.04,ENE,74,4.0,10.0,92,0.00,,---,0.01,VWS V14.01,2013-10-04 16:57:00,
2013-10-04 13:00:00,58.0,56.3,30.02,SE,141,4.0,8.0,94,0.00,,---,0.01,VWS V14.01,2013-10-04 17:00:00,
2013-10-04 13:02:00,57.7,55.4,30.04,ENE,63,3.0,6.0,92,0.00,,---,0.01,VWS V14.01,2013-10-04 17:02:00,
2013-10-04 13:07:00,57.9,55.9,30.04,East,91,1.0,8.0,93,0.00,,---,0.01,VWS V14.01,2013-10-04 17:07:00,
2013-10-04 13:12:00,57.9,55.9,30.04,ESE,118,2.0,8.0,93,0.00,,---,0.01,VWS V14.01,2013-10-04 17:12:00,
2013-10-04 13:17:00,58.0,55.7,30.04,ESE,108,2.0,8.0,92,0.00,,---,0.01,VWS V14.01,2013-10-04 17:17:00,
2013-10-04 13:22:00,57.9,55.6,30.04,East,92,1.0,8.0,92,0.00,,---,0.01,VWS V14.01,2013-10-04 17:22:00,
2013-10-04 13:27:00,57.9,55.6,30.04,ENE,73,1.0,8.0,92,0.00,,---,0.01,VWS V14.01,2013-10-04 17:27:00,
2013-10-04 13:30:00,57.7,55.7,30.03,NE,53,3.0,8.0,93,0.00,,---,0.01,VWS V14.01,2013-10-04 17:30:00,
2013-10-04 13:32:00,57.9,55.6,30.04,SE,125,4.0,6.0,92,0.00,,---,0.01,VWS V14.01,2013-10-04 17:32:00,
2013-10-04 13:37:00,57.9,55.6,30.03,NE,47,4.0,8.0,92,0.00,,---,0.01,VWS V14.01,2013-10-04 17:37:00,
2013-10-04 14:00:00,57.7,55.7,30.04,East,97,2.0,10.0,93,0.00,,---,0.01,VWS V14.01,2013-10-04 18:00:00,
2013-10-04 14:03:00,57.9,55.6,30.03,ENE,72,4.0,7.0,92,0.00,,---,0.01,VWS V14.01,2013-10-04 18:03:00,
2013-10-04 14:08:00,57.9,55.6,30.03,ENE,74,2.0,9.0,92,0.00,,---,0.01,VWS V14.01,2013-10-04 18:08:00,
2013-10-04 14:13:00,58.0,55.7,30.03,ESE,107,5.0,9.0,92,0.00,,---,0.01,VWS V14.01,2013-10-04 18:13:00,
2013-10-04 14:18:00,58.0,55.7,30.03,East,89,2.0,9.0,92,0.00,,---,0.01,VWS V14.01,2013-10-04 18:18:00,
2013-10-04 14:23:00,58.0,55.4,30.03,ENE,71,2.0,9.0,91,0.00,,---,0.01,VWS V14.01,2013-10-04 18:23:00,
2013-10-04 14:28:00,58.0,55.7,30.03,ESE,119,5.0,10.0,92,0.00,,---,0.01,VWS V14.01,2013-10-04 18:28:00,
2013-10-04 14:30:00,57.9,55.6,30.04,SSE,165,2.0,8.0,92,0.00,,---,0.01,VWS V14.01,2013-10-04 18:30:00,
2013-10-04 14:33:00,58.0,55.7,30.03,East,93,4.0,5.0,92,0.00,,---,0.01,VWS V14.01,2013-10-04 18:33:00,
2013-10-04 14:38:00,57.9,55.6,30.03,East,79,1.0,7.0,92,0.00,,---,0.01,VWS V14.01,2013-10-04 18:38:00,
2013-10-04 14:43:00,57.7,55.4,30.03,ENE,72,7.0,8.0,92,0.00,,---,0.01,VWS V14.01,2013-10-04 18:43:00,
2013-10-04 14:48:00,57.7,55.4,30.04,NE,37,2.0,8.0,92,0.00,,---,0.01,VWS V14.01,2013-10-04 18:48:00,
2013-10-04 14:53:00,57.7,55.4,30.04,ENE,66,1.0,8.0,92,0.00,,---,0.01,VWS V14.01,2013-10-04 18:53:00,
2013-10-04 14:58:00,57.7,55.4,30.03,ENE,62,0.0,8.0,92,0.00,,---,0.01,VWS V14.01,2013-10-04 18:58:00,
2013-10-04 15:00:00,58.0,55.7,30.03,ENE,71,4.0,8.0,92,0.00,,---,0.01,VWS V14.01,2013-10-04 19:00:00,
2013-10-04 15:03:00,57.7,55.4,30.04,ENE,57,0.0,7.0,92,0.00,,---,0.01,VWS V14.01,2013-10-04 19:03:00,
2013-10-04 15:08:00,57.7,55.1,30.04,ESE,114,4.0,8.0,91,0.00,,---,0.01,VWS V14.01,2013-10-04 19:08:00,
2013-10-04 15:13:00,57.7,55.4,30.04,ENE,71,1.0,8.0,92,0.00,,---,0.01,VWS V14.01,2013-10-04 19:13:00,
2013-10-04 15:18:00,57.7,55.4,30.04,NE,45,4.0,9.0,92,0.00,,---,0.01,VWS V14.01,2013-10-04 19:18:00,
2013-10-04 15:23:00,57.6,55.3,30.03,NE,47,3.0,9.0,92,0.00,,---,0.01,VWS V14.01,2013-10-04 19:23:00,
2013-10-04 15:28:00,57.4,55.1,30.03,ENE,60,1.0,13.0,92,0.00,,---,0.01,VWS V14.01,2013-10-04 19:28:00,
2013-10-04 15:30:00,58.0,55.4,30.03,SE,134,4.0,10.0,91,0.00,,---,0.01,VWS V14.01,2013-10-04 19:30:00,
2013-10-04 15:33:00,57.4,55.1,30.03,ESE,105,3.0,7.0,92,0.00,,---,0.01,VWS V14.01,2013-10-04 19:33:00,
2013-10-04 15:38:00,57.3,54.7,30.03,NNE,22,2.0,7.0,91,0.00,,---,0.01,VWS V14.01,2013-10-04 19:38:00,
2013-10-04 15:43:00,57.3,54.7,30.03,NNE,17,2.0,10.0,91,0.00,,---,0.01,VWS V14.01,2013-10-04 19:43:00,
2013-10-04 15:48:00,57.4,55.1,30.03,NNE,24,9.0,10.0,92,0.00,,---,0.01,VWS V14.01,2013-10-04 19:48:00,
2013-10-04 15:53:00,57.3,55.0,30.03,NNE,30,7.0,10.0,92,0.00,,---,0.01,VWS V14.01,2013-10-04 19:53:00,
2013-10-04 15:58:00,57.3,55.0,30.03,NNW,331,4.0,10.0,92,0.00,,---,0.01,VWS V14.01,2013-10-04 19:58:00,
2013-10-04 16:00:00,57.7,55.4,30.04,East,96,2.0,8.0,92,0.00,,---,0.01,VWS V14.01,2013-10-04 20:00:00,
2013-10-04 16:03:00,57.1,54.8,30.03,ESE,121,6.0,6.0,92,0.00,,---,0.01,VWS V14.01,2013-10-04 20:03:00,
2013-10-04 16:09:00,57.0,54.4,30.04,SE,131,5.0,8.0,91,0.00,,---,0.01,VWS V14.01,2013-10-04 20:09:00,
2013-10-04 16:14:00,57.0,54.7,30.05,ESE,108,5.0,11.0,92,0.01,,---,0.02,VWS V14.01,2013-10-04 20:14:00,
2013-10-04 16:19:00,56.8,54.2,30.04,NE,34,1.0,11.0,91,0.01,,---,0.02,VWS V14.01,2013-10-04 20:19:00,
2013-10-04 16:24:00,56.8,54.5,30.05,SW,225,1.0,11.0,92,0.01,,---,0.02,VWS V14.01,2013-10-04 20:24:00,
2013-10-04 16:29:00,56.8,54.5,30.06,South,185,0.0,11.0,92,0.01,,---,0.02,VWS V14.01,2013-10-04 20:29:00,
2013-10-04 16:30:00,57.4,55.1,30.04,ESE,114,0.0,13.0,92,0.00,,---,0.01,VWS V14.01,2013-10-04 20:30:00,
2013-10-04 16:34:00,56.8,54.2,30.06,SSE,153,3.0,6.0,91,0.01,,---,0.02,VWS V14.01,2013-10-04 20:34:00,
2013-10-04 16:39:00,56.7,54.4,30.06,SE,132,5.0,6.0,92,0.01,,---,0.02,VWS V14.01,2013-10-04 20:39:00,
2013-10-04 16:44:00,56.7,54.4,30.06,NE,34,5.0,8.0,92,0.01,,---,0.02,VWS V14.01,2013-10-04 20:44:00,
2013-10-04 16:49:00,56.5,54.2,30.06,East,87,4.0,8.0,92,0.01,,---,0.02,VWS V14.01,2013-10-04 20:49:00,
2013-10-04 16:54:00,56.5,54.2,30.07,ESE,121,0.0,8.0,92,0.01,,---,0.02,VWS V14.01,2013-10-04 20:54:00,
2013-10-04 16:59:00,56.4,54.1,30.07,ENE,61,1.0,8.0,92,0.01,,---,0.02,VWS V14.01,2013-10-04 20:59:00,
2013-10-04 17:00:00,57.1,54.8,30.03,North,349,4.0,10.0,92,0.00,,---,0.01,VWS V14.01,2013-10-04 21:00:00,
2013-10-04 17:04:00,56.2,54.2,30.06,NE,50,3.0,7.0,93,0.01,,---,0.02,VWS V14.01,2013-10-04 21:04:00,
2013-10-04 17:09:00,56.1,54.1,30.07,East,93,1.0,7.0,93,0.01,,---,0.02,VWS V14.01,2013-10-04 21:09:00,
2013-10-04 17:14:00,56.1,54.1,30.06,East,83,3.0,7.0,93,0.01,,---,0.02,VWS V14.01,2013-10-04 21:14:00,
2013-10-04 17:19:00,55.9,53.9,30.06,East,83,1.0,7.0,93,0.01,,---,0.02,VWS V14.01,2013-10-04 21:19:00,
2013-10-04 17:24:00,55.9,53.9,30.06,SE,124,2.0,7.0,93,0.01,,---,0.02,VWS V14.01,2013-10-04 21:24:00,
2013-10-04 17:29:00,55.9,53.9,30.07,SE,124,1.0,7.0,93,0.01,,---,0.02,VWS V14.01,2013-10-04 21:29:00,
2013-10-04 17:30:00,56.8,54.5,30.06,South,185,3.0,11.0,92,0.01,,---,0.02,VWS V14.01,2013-10-04 21:30:00,
2013-10-04 17:34:00,55.9,53.9,30.06,SE,124,0.0,3.0,93,0.00,,---,0.02,VWS V14.01,2013-10-04 21:34:00,
2013-10-04 17:39:00,55.8,54.1,30.07,NE,48,1.0,5.0,94,0.00,,---,0.02,VWS V14.01,2013-10-04 21:39:00,
2013-10-04 17:44:00,55.8,53.8,30.06,NE,48,1.0,5.0,93,0.00,,---,0.02,VWS V14.01,2013-10-04 21:44:00,
2013-10-04 17:49:00,55.8,54.1,30.07,ENE,72,1.0,5.0,94,0.00,,---,0.02,VWS V14.01,2013-10-04 21:49:00,
2013-10-04 17:54:00,55.8,54.1,30.06,ENE,72,0.0,5.0,94,0.00,,---,0.02,VWS V14.01,2013-10-04 21:54:00,
2013-10-04 17:59:00,55.8,54.1,30.07,East,89,1.0,5.0,94,0.00,,---,0.02,VWS V14.01,2013-10-04 21:59:00,
2013-10-04 18:00:00,56.4,54.1,30.07,ENE,61,2.0,8.0,92,0.01,,---,0.02,VWS V14.01,2013-10-04 22:00:00,
2013-10-04 18:04:00,55.8,54.1,30.07,East,89,1.0,2.0,94,0.00,,---,0.02,VWS V14.01,2013-10-04 22:04:00,
2013-10-04 18:09:00,55.8,54.1,30.07,East,96,1.0,5.0,94,0.00,,---,0.02,VWS V14.01,2013-10-04 22:09:00,
2013-10-04 18:14:00,55.8,54.1,30.07,East,96,3.0,5.0,94,0.00,,---,0.02,VWS V14.01,2013-10-04 22:14:00,
2013-10-04 18:19:00,55.8,54.4,30.07,NE,41,2.0,6.0,95,0.00,,---,0.02,VWS V14.01,2013-10-04 22:19:00,
2013-10-04 18:24:00,55.8,54.1,30.07,NE,41,2.0,6.0,94,0.00,,---,0.02,VWS V14.01,2013-10-04 22:24:00,
2013-10-04 18:29:00,55.8,54.4,30.07,NE,41,1.0,6.0,95,0.00,,---,0.02,VWS V14.01,2013-10-04 22:29:00,
2013-10-04 18:30:00,55.9,53.9,30.07,SE,124,2.0,7.0,93,0.01,,---,0.02,VWS V14.01,2013-10-04 22:30:00,
2013-10-04 18:34:00,55.6,53.9,30.06,NE,41,0.0,4.0,94,0.00,,---,0.02,VWS V14.01,2013-10-04 22:34:00,
2013-10-04 18:39:00,55.6,54.2,30.06,NE,41,0.0,5.0,95,0.00,,---,0.02,VWS V14.01,2013-10-04 22:39:00,
2013-10-04 18:44:00,55.8,54.4,30.06,North,1,4.0,7.0,95,0.00,,---,0.02,VWS V14.01,2013-10-04 22:44:00,
2013-10-04 18:49:00,55.8,54.4,30.06,NNE,21,0.0,7.0,95,0.00,,---,0.02,VWS V14.01,2013-10-04 22:49:00,
2013-10-04 18:54:00,55.8,54.1,30.07,NNE,21,1.0,7.0,94,0.00,,---,0.02,VWS V14.01,2013-10-04 22:54:00,
2013-10-04 18:59:00,55.8,54.4,30.07,NNE,21,2.0,7.0,95,0.00,,---,0.02,VWS V14.01,2013-10-04 22:59:00,
2013-10-04 19:00:00,55.8,54.1,30.06,East,89,0.0,5.0,94,0.00,,---,0.02,VWS V14.01,2013-10-04 23:00:00,
2013-10-04 19:04:00,55.6,54.2,30.07,East,84,2.0,5.0,95,0.00,,---,0.02,VWS V14.01,2013-10-04 23:04:00,
2013-10-04 19:09:00,55.6,54.2,30.07,East,86,1.0,5.0,95,0.00,,---,0.02,VWS V14.01,2013-10-04 23:09:00,
2013-10-04 19:14:00,55.5,53.8,30.07,NE,56,3.0,5.0,94,0.00,,---,0.02,VWS V14.01,2013-10-04 23:14:00,
2013-10-04 19:20:00,55.5,53.8,30.07,ENE,57,1.0,5.0,94,0.00,,---,0.02,VWS V14.01,2013-10-04 23:20:00,
2013-10-04 19:25:00,55.5,53.8,30.08,ENE,57,1.0,5.0,94,0.00,,---,0.02,VWS V14.01,2013-10-04 23:25:00,
2013-10-04 19:30:00,55.5,53.8,30.08,NE,56,0.0,5.0,94,0.00,,---,0.02,VWS V14.01,2013-10-04 23:30:00,
2013-10-04 19:35:00,55.5,53.8,30.08,NE,56,1.0,3.0,94,0.00,,---,0.02,VWS V14.01,2013-10-04 23:35:00,
2013-10-04 19:40:00,55.5,53.5,30.08,NE,56,0.0,3.0,93,0.00,,---,0.02,VWS V14.01,2013-10-04 23:40:00,
2013-10-04 19:45:00,55.5,53.8,30.08,SE,142,2.0,5.0,94,0.00,,---,0.02,VWS V14.01,2013-10-04 23:45:00,
2013-10-04 19:50:00,55.3,53.3,30.08,SE,142,3.0,5.0,93,0.00,,---,0.02,VWS V14.01,2013-10-04 23:50:00,
2013-10-04 19:55:00,55.3,53.6,30.08,SE,142,2.0,5.0,94,0.00,,---,0.02,VWS V14.01,2013-10-04 23:55:00,
2013-10-04 20:00:00,55.3,53.3,30.07,SE,134,2.0,2.0,93,0.00,,---,0.02,VWS V14.01,2013-10-05 00:00:00,
2013-10-04 20:05:00,55.3,53.6,30.07,SE,134,0.0,3.0,94,0.00,,---,0.02,VWS V14.01,2013-10-05 00:05:00,
2013-10-04 20:10:00,55.3,53.6,30.07,SE,125,3.0,5.0,94,0.00,,---,0.02,VWS V14.01,2013-10-05 00:10:00,
2013-10-04 20:15:00,55.3,53.6,30.07,SE,125,3.0,5.0,94,0.00,,---,0.02,VWS V14.01,2013-10-05 00:15:00,
2013-10-04 20:20:00,55.3,53.6,30.07,SE,127,1.0,6.0,94,0.00,,---,0.02,VWS V14.01,2013-10-05 00:20:00,
2013-10-04 20:25:00,55.3,53.6,30.07,SE,136,3.0,6.0,94,0.00,,---,0.02,VWS V14.01,2013-10-05 00:25:00,
2013-10-04 20:30:00,55.4,53.4,30.07,SE,144,2.0,3.0,93,0.00,,---,0.02,VWS V14.01,2013-10-05 00:30:00,
2013-10-04 20:35:00,55.3,53.3,30.07,SSE,150,1.0,5.0,93,0.00,,---,0.02,VWS V14.01,2013-10-05 00:35:00,
2013-10-04 20:40:00,55.3,53.3,30.07,SE,130,1.0,7.0,93,0.00,,---,0.02,VWS V14.01,2013-10-05 00:40:00,
2013-10-04 20:45:00,55.3,53.3,30.07,SE,130,1.0,7.0,93,0.00,,---,0.02,VWS V14.01,2013-10-05 00:45:00,
2013-10-04 20:50:00,55.3,53.3,30.07,SE,130,1.0,7.0,93,0.00,,---,0.02,VWS V14.01,2013-10-05 00:50:00,
2013-10-04 20:55:00,55.3,53.3,30.08,ESE,122,0.0,7.0,93,0.00,,---,0.02,VWS V14.01,2013-10-05 00:55:00,
2013-10-04 21:00:00,55.3,53.3,30.08,ESE,122,1.0,2.0,93,0.00,,---,0.02,VWS V14.01,2013-10-05 01:00:00,
2013-10-04 21:05:00,55.4,53.4,30.08,ESE,122,0.0,3.0,93,0.00,,---,0.02,VWS V14.01,2013-10-05 01:05:00,
2013-10-04 21:10:00,55.3,53.3,30.08,ESE,122,0.0,3.0,93,0.00,,---,0.02,VWS V14.01,2013-10-05 01:10:00,
2013-10-04 21:15:00,55.2,53.5,30.08,ESE,122,1.0,3.0,94,0.00,,---,0.02,VWS V14.01,2013-10-05 01:15:00,
2013-10-04 21:20:00,55.2,53.2,30.08,ESE,122,0.0,3.0,93,0.00,,---,0.02,VWS V14.01,2013-10-05 01:20:00,
2013-10-04 21:25:00,55.2,53.5,30.08,East,87,0.0,6.0,94,0.00,,---,0.02,VWS V14.01,2013-10-05 01:25:00,
2013-10-04 21:30:00,55.4,53.7,30.08,East,87,1.0,1.0,94,0.00,,---,0.02,VWS V14.01,2013-10-05 01:30:00,
2013-10-04 21:35:00,55.3,53.3,30.08,East,87,1.0,3.0,93,0.00,,---,0.02,VWS V14.01,2013-10-05 01:35:00,
2013-10-04 21:40:00,55.4,53.7,30.08,East,87,2.0,4.0,94,0.00,,---,0.02,VWS V14.01,2013-10-05 01:40:00,
2013-10-04 21:45:00,55.3,53.6,30.08,East,88,1.0,4.0,94,0.00,,---,0.02,VWS V14.01,2013-10-05 01:45:00,
2013-10-04 21:50:00,55.3,53.6,30.08,East,88,0.0,4.0,94,0.00,,---,0.02,VWS V14.01,2013-10-05 01:50:00,
2013-10-04 21:56:00,55.2,53.5,30.08,East,88,1.0,4.0,94,0.00,,---,0.02,VWS V14.01,2013-10-05 01:56:00,
2013-10-04 22:00:00,55.2,53.5,30.09,North,8,0.0,2.0,94,0.00,,---,0.02,VWS V14.01,2013-10-05 02:00:00,
2013-10-04 22:05:00,55.3,53.6,30.09,East,99,2.0,6.0,94,0.00,,---,0.02,VWS V14.01,2013-10-05 02:05:00,
2013-10-04 22:11:00,55.4,53.7,30.09,East,99,1.0,6.0,94,0.00,,---,0.02,VWS V14.01,2013-10-05 02:11:00,
2013-10-04 22:16:00,55.2,53.5,30.09,East,101,1.0,6.0,94,0.00,,---,0.02,VWS V14.01,2013-10-05 02:16:00,
2013-10-04 22:21:00,55.2,53.8,30.09,ENE,73,0.0,6.0,95,0.00,,---,0.02,VWS V14.01,2013-10-05 02:21:00,
2013-10-04 22:26:00,55.2,53.5,30.09,ENE,73,2.0,6.0,94,0.00,,---,0.02,VWS V14.01,2013-10-05 02:26:00,
2013-10-04 22:30:00,55.3,53.6,30.08,East,87,0.0,6.0,94,0.00,,---,0.02,VWS V14.01,2013-10-05 02:30:00,
2013-10-04 22:31:00,55.2,53.5,30.09,South,170,4.0,5.0,94,0.00,,---,0.02,VWS V14.01,2013-10-05 02:31:00,
2013-10-04 22:36:00,55.4,53.7,30.09,SSE,165,1.0,5.0,94,0.00,,---,0.02,VWS V14.01,2013-10-05 02:36:00,
2013-10-04 22:41:00,55.3,53.6,30.09,East,82,1.0,5.0,94,0.00,,---,0.02,VWS V14.01,2013-10-05 02:41:00,
2013-10-04 22:46:00,55.3,53.6,30.10,East,93,3.0,5.0,94,0.00,,---,0.02,VWS V14.01,2013-10-05 02:46:00,
2013-10-04 22:51:00,55.3,53.9,30.10,ESE,109,1.0,5.0,95,0.00,,---,0.02,VWS V14.01,2013-10-05 02:51:00,
2013-10-04 22:56:00,55.4,53.7,30.10,ESE,120,2.0,5.0,94,0.00,,---,0.02,VWS V14.01,2013-10-05 02:56:00,
2013-10-04 23:00:00,55.2,53.5,30.09,North,8,2.0,5.0,94,0.00,,---,0.02,VWS V14.01,2013-10-05 03:00:00,
2013-10-04 23:01:00,55.3,53.6,30.10,ENE,78,1.0,5.0,94,0.00,,---,0.02,VWS V14.01,2013-10-05 03:01:00,
2013-10-04 23:06:00,55.3,53.6,30.10,ESE,109,4.0,5.0,94,0.00,,---,0.02,VWS V14.01,2013-10-05 03:06:00,
2013-10-04 23:11:00,55.3,53.6,30.10,ENE,75,2.0,6.0,94,0.00,,---,0.02,VWS V14.01,2013-10-05 03:11:00,
2013-10-04 23:16:00,55.5,53.8,30.10,ENE,76,0.0,6.0,94,0.00,,---,0.02,VWS V14.01,2013-10-05 03:16:00,
2013-10-04 23:21:00,55.3,53.6,30.10,NE,53,0.0,6.0,94,0.00,,---,0.02,VWS V14.01,2013-10-05 03:21:00,
2013-10-04 23:26:00,55.3,53.3,30.10,ENE,78,3.0,6.0,93,0.01,,---,0.03,VWS V14.01,2013-10-05 03:26:00,
2013-10-04 23:30:00,55.2,53.5,30.09,SE,133,2.0,6.0,94,0.00,,---,0.02,VWS V14.01,2013-10-05 03:30:00,
2013-10-04 23:31:00,55.3,53.6,30.10,ENE,78,2.0,3.0,94,0.01,,---,0.03,VWS V14.01,2013-10-05 03:31:00,
2013-10-04 23:36:00,55.4,53.7,30.10,ENE,78,1.0,3.0,94,0.01,,---,0.03,VWS V14.01,2013-10-05 03:36:00,
2013-10-04 23:41:00,55.3,53.6,30.10,ENE,78,2.0,3.0,94,0.01,,---,0.03,VWS V14.01,2013-10-05 03:41:00,
2013-10-04 23:46:00,55.3,53.6,30.10,ENE,78,1.0,4.0,94,0.01,,---,0.03,VWS V14.01,2013-10-05 03:46:00,
2013-10-04 23:51:00,55.3,53.3,30.09,East,86,1.0,5.0,93,0.01,,---,0.03,VWS V14.01,2013-10-05 03:51:00,
2013-10-04 23:56:00,55.4,53.4,30.10,East,86,3.0,5.0,93,0.01,,---,0.03,VWS V14.01,2013-10-05 03:56:00,